Time;durP1;ratioP1;P1;durP2;ratioP2;P2;SDS_P1;SDS_P2;PMS_P1;PMS_P2;Temp;Humidity;BMP_temperature;BMP_pressure;BME280_temperature;BME280_humidity;BME280_pressure;Samples;Min_cycle;Max_cycle;Signal;HPM_P1;HPM_P2
2023/12/13 00:02:03;;;;;;;14.90;5.70;;;;;;;-3.90;100.00;100675.91;105726;1257;60411;-55
2023/12/13 00:04:31;;;;;;;13.90;5.30;;;;;;;-3.98;100.00;100676.84;105685;1256;60924;-58
2023/12/13 00:06:58;;;;;;;9.20;4.10;;;;;;;-4.03;100.00;100674.04;105869;1255;73917;-58
2023/12/13 00:09:26;;;;;;;10.70;4.70;;;;;;;-4.09;100.00;100670.45;105790;1251;66917;-54
2023/12/13 00:11:54;;;;;;;16.60;6.60;;;;;;;-4.13;100.00;100671.00;105780;1257;72720;-57
2023/12/13 00:14:22;;;;;;;9.90;4.90;;;;;;;-4.14;100.00;100671.73;105832;1251;60447;-57
2023/12/13 00:16:51;;;;;;;11.30;5.40;;;;;;;-4.12;100.00;100669.23;105931;1253;60512;-56
2023/12/13 00:19:20;;;;;;;12.10;5.60;;;;;;;-4.13;100.00;100666.92;105858;1251;73837;-56
2023/12/13 00:21:48;;;;;;;12.00;5.90;;;;;;;-4.13;100.00;100672.34;105758;1253;66933;-54
2023/12/13 00:24:16;;;;;;;24.40;7.30;;;;;;;-4.12;100.00;100671.44;105718;1251;72761;-56
2023/12/13 00:26:44;;;;;;;13.00;6.90;;;;;;;-4.13;100.00;100675.06;105676;1256;60460;-57
2023/12/13 00:29:12;;;;;;;13.40;6.00;;;;;;;-4.15;100.00;100677.37;105697;1257;60545;-57
2023/12/13 00:31:39;;;;;;;10.80;5.50;;;;;;;-4.16;100.00;100675.02;105905;1253;73883;-54
2023/12/13 00:34:07;;;;;;;10.40;5.90;;;;;;;-4.18;100.00;100675.14;105736;1251;67825;-55
2023/12/13 00:36:35;;;;;;;9.20;5.20;;;;;;;-4.19;100.00;100672.31;105799;1256;72733;-58
2023/12/13 00:39:03;;;;;;;12.40;5.90;;;;;;;-4.21;100.00;100667.81;105842;1251;61736;-55
2023/12/13 00:41:31;;;;;;;8.80;4.90;;;;;;;-4.24;100.00;100669.67;105918;1256;60322;-55
2023/12/13 00:43:59;;;;;;;12.40;5.20;;;;;;;-4.25;100.00;100671.27;105883;1252;74452;-59
2023/12/13 00:46:27;;;;;;;9.70;5.40;;;;;;;-4.27;100.00;100675.45;105924;1253;65694;-55
2023/12/13 00:48:55;;;;;;;12.60;5.90;;;;;;;-4.31;100.00;100673.10;105754;1253;72750;-55
2023/12/13 00:51:22;;;;;;;13.30;5.40;;;;;;;-4.34;100.00;100674.61;106096;1254;60518;-56
2023/12/13 00:53:50;;;;;;;11.40;4.60;;;;;;;-4.40;100.00;100672.85;106031;1257;60420;-60
2023/12/13 00:56:18;;;;;;;13.30;5.40;;;;;;;-4.43;100.00;100667.60;105620;1256;73890;-57
2023/12/13 00:58:47;;;;;;;11.30;5.40;;;;;;;-4.47;100.00;100669.48;105817;1255;66853;-55
2023/12/13 01:01:16;;;;;;;11.90;4.90;;;;;;;-4.48;100.00;100660.36;105800;1256;72732;-56
2023/12/13 01:03:44;;;;;;;13.90;4.60;;;;;;;-4.44;100.00;100652.38;105887;1251;62162;-56
2023/12/13 01:06:12;;;;;;;7.00;2.70;;;;;;;-4.43;100.00;100650.81;105963;1251;60532;-62
2023/12/13 01:08:40;;;;;;;7.60;3.10;;;;;;;-4.42;100.00;100655.19;105897;1256;74225;-57
2023/12/13 01:11:11;;;;;;;7.50;3.30;;;;;;;-4.46;100.00;100647.23;105779;1251;64656;-55
2023/12/13 01:13:39;;;;;;;8.80;2.90;;;;;;;-4.47;100.00;100644.03;105732;1252;71967;-56
2023/12/13 01:16:07;;;;;;;9.70;3.30;;;;;;;-4.47;100.00;100640.48;105857;1255;60593;-55
2023/12/13 01:18:35;;;;;;;8.20;3.00;;;;;;;-4.49;100.00;100646.55;105745;1251;60335;-55
2023/12/13 01:21:03;;;;;;;13.50;5.40;;;;;;;-4.51;100.00;100649.66;105839;1251;74410;-56
2023/12/13 01:23:31;;;;;;;10.40;4.90;;;;;;;-4.54;100.00;100649.13;105768;1250;67033;-55
2023/12/13 01:25:59;;;;;;;12.40;4.50;;;;;;;-4.60;100.00;100649.27;105848;1254;72791;-55
2023/12/13 01:28:26;;;;;;;10.20;4.20;;;;;;;-4.56;100.00;100646.69;105768;1256;61248;-56
2023/12/13 01:30:54;;;;;;;11.80;4.50;;;;;;;-4.57;100.00;100645.22;105757;1252;60501;-55
2023/12/13 01:33:22;;;;;;;11.70;4.60;;;;;;;-4.55;100.00;100653.27;105776;1256;73097;-55
2023/12/13 01:35:50;;;;;;;9.50;4.10;;;;;;;-4.55;100.00;100652.11;105826;1251;67078;-55
2023/12/13 01:38:18;;;;;;;11.40;4.40;;;;;;;-4.56;100.00;100651.47;105805;1253;73452;-56
2023/12/13 01:40:53;;;;;;;11.50;4.00;;;;;;;-4.56;100.00;100650.80;105686;1256;60527;-55
2023/12/13 01:43:41;;;;;;;8.30;3.70;;;;;;;-4.58;100.00;100645.95;105800;1256;60385;-61
2023/12/13 01:46:09;;;;;;;8.00;2.80;;;;;;;-4.56;100.00;100649.92;105717;1256;73334;-55
2023/12/13 01:48:37;;;;;;;8.00;3.40;;;;;;;-4.57;100.00;100656.09;105711;1257;65723;-55
2023/12/13 01:58:44;;;;;;;7.80;3.80;;;;;;;-4.71;100.00;100645.42;102470;1290;601101;-57
2023/12/13 02:01:12;;;;;;;10.10;3.30;;;;;;;-4.75;100.00;100647.49;104915;1267;59610;-56
2023/12/13 02:03:41;;;;;;;6.20;2.60;;;;;;;-4.75;100.00;100651.21;105113;1263;60043;-62
2023/12/13 02:06:09;;;;;;;8.60;2.40;;;;;;;-4.75;100.00;100652.06;104739;1263;71380;-56
2023/12/13 02:08:36;;;;;;;6.80;2.90;;;;;;;-4.77;100.00;100657.94;104704;1269;67449;-55
2023/12/13 02:11:04;;;;;;;9.70;2.40;;;;;;;-4.83;100.00;100656.70;104802;1263;71412;-57
2023/12/13 02:13:32;;;;;;;9.30;2.80;;;;;;;-4.88;100.00;100653.03;105007;1265;196107;-59
2023/12/13 02:16:00;;;;;;;7.10;2.50;;;;;;;-4.90;100.00;100661.11;104958;1261;60159;-56
2023/12/13 02:18:28;;;;;;;10.60;3.20;;;;;;;-4.92;100.00;100660.02;105093;1262;72226;-56
2023/12/13 02:20:56;;;;;;;8.70;4.20;;;;;;;-4.93;100.00;100662.41;105141;1263;65678;-56
2023/12/13 02:23:24;;;;;;;9.10;2.80;;;;;;;-4.94;100.00;100659.29;105236;1262;72758;-56
2023/12/13 02:25:56;;;;;;;8.10;3.90;;;;;;;-4.99;100.00;100655.77;106061;1251;61768;-56
2023/12/13 02:28:25;;;;;;;7.80;3.10;;;;;;;-5.02;100.00;100659.15;106023;1254;60083;-56
2023/12/13 02:30:54;;;;;;;9.20;4.20;;;;;;;-5.04;100.00;100661.09;105909;1250;73078;-56
2023/12/13 02:33:26;;;;;;;8.20;3.20;;;;;;;-5.06;100.00;100659.52;105707;1254;65990;-56
2023/12/13 02:35:56;;;;;;;13.20;3.30;;;;;;;-5.08;100.00;100660.44;105746;1251;72694;-55
2023/12/13 02:38:24;;;;;;;13.50;4.60;;;;;;;-5.06;100.00;100659.00;105894;1255;61690;-56
2023/12/13 02:40:55;;;;;;;9.60;4.10;;;;;;;-5.09;100.00;100658.10;105997;1253;59505;-56
2023/12/13 02:43:23;;;;;;;13.30;5.20;;;;;;;-5.11;100.00;100663.11;105791;1255;71702;-55
2023/12/13 02:45:51;;;;;;;13.50;4.30;;;;;;;-5.13;100.00;100660.17;105782;1251;67126;-55
2023/12/13 02:48:19;;;;;;;14.50;5.30;;;;;;;-5.18;100.00;100662.92;105786;1254;70488;-56
2023/12/13 02:50:48;;;;;;;11.70;4.60;;;;;;;-5.20;100.00;100657.43;105906;1250;61693;-55
2023/12/13 02:53:16;;;;;;;13.30;4.70;;;;;;;-5.21;100.00;100661.08;105957;1253;59611;-55
2023/12/13 02:55:44;;;;;;;11.90;5.40;;;;;;;-5.25;100.00;100659.57;105809;1250;70867;-55
2023/12/13 02:58:11;;;;;;;11.50;4.60;;;;;;;-5.27;100.00;100659.30;105851;1256;67044;-55
2023/12/13 03:00:39;;;;;;;13.20;4.90;;;;;;;-5.28;100.00;100655.98;105806;1254;72736;-55
2023/12/13 03:11:10;;;;;;;13.30;5.00;;;;;;;-5.32;100.00;100649.06;103465;1288;616607;-56
2023/12/13 03:13:37;;;;;;;12.00;4.00;;;;;;;-5.31;100.00;100651.89;105139;1264;59919;-56
2023/12/13 03:16:06;;;;;;;9.80;4.10;;;;;;;-5.32;100.00;100654.64;105134;1264;60633;-56
2023/12/13 03:18:33;;;;;;;9.50;3.00;;;;;;;-5.33;100.00;100654.15;104858;1268;72131;-62
2023/12/13 03:21:00;;;;;;;10.50;4.10;;;;;;;-5.33;100.00;100659.09;105320;1264;68160;-56
2023/12/13 03:23:27;;;;;;;7.60;2.50;;;;;;;-5.34;100.00;100663.02;104702;1268;204656;-56
2023/12/13 03:25:54;;;;;;;6.80;2.40;;;;;;;-5.33;100.00;100668.58;105382;1264;59608;-55
2023/12/13 03:28:21;;;;;;;10.40;2.70;;;;;;;-5.35;100.00;100668.49;105171;1262;59318;-56
2023/12/13 03:30:48;;;;;;;9.50;3.60;;;;;;;-5.37;100.00;100669.09;105204;1263;72284;-56
2023/12/13 03:33:15;;;;;;;12.10;2.70;;;;;;;-5.39;100.00;100678.31;105347;1266;65944;-56
2023/12/13 03:35:42;;;;;;;12.10;3.20;;;;;;;-5.43;100.00;100675.45;105398;1263;72552;-56
2023/12/13 03:38:09;;;;;;;9.10;3.70;;;;;;;-5.48;100.00;100681.80;105199;1267;59701;-56
2023/12/13 03:40:36;;;;;;;8.80;3.80;;;;;;;-5.50;100.00;100683.92;105929;1251;60323;-56
2023/12/13 03:43:03;;;;;;;10.40;4.00;;;;;;;-5.53;100.00;100689.65;106019;1250;71794;-61
2023/12/13 03:45:30;;;;;;;10.30;3.90;;;;;;;-5.59;100.00;100685.67;106077;1251;65996;-56
2023/12/13 03:47:57;;;;;;;10.80;3.80;;;;;;;-5.61;100.00;100686.61;105912;1254;72650;-56
2023/12/13 03:50:24;;;;;;;13.10;3.80;;;;;;;-5.60;100.00;100687.42;105796;1254;59836;-56
2023/12/13 03:52:51;;;;;;;14.20;3.10;;;;;;;-5.60;100.00;100691.83;105788;1251;59748;-57
2023/12/13 03:55:18;;;;;;;14.70;3.90;;;;;;;-5.63;100.00;100695.33;105860;1251;72838;-57
2023/12/13 03:57:45;;;;;;;7.80;2.80;;;;;;;-5.66;100.00;100700.54;105953;1251;65622;-55
2023/12/13 04:00:12;;;;;;;12.60;2.70;;;;;;;-5.65;100.00;100696.77;105855;1251;72753;-56
2023/12/13 04:02:39;;;;;;;9.80;2.90;;;;;;;-5.69;100.00;100701.83;105925;1255;59644;-56
2023/12/13 04:05:07;;;;;;;9.20;2.60;;;;;;;-5.72;100.00;100698.95;106040;1251;59948;-61
2023/12/13 04:07:34;;;;;;;7.30;2.20;;;;;;;-5.76;100.00;100708.11;105943;1250;71975;-56
2023/12/13 04:10:02;;;;;;;5.70;2.30;;;;;;;-5.81;100.00;100698.67;105903;1251;66864;-55
2023/12/13 04:12:29;;;;;;;8.60;2.30;;;;;;;-5.87;100.00;100699.11;105883;1251;72672;-56
2023/12/13 04:14:56;;;;;;;12.70;3.90;;;;;;;-5.88;100.00;100699.48;105950;1254;60379;-56
2023/12/13 04:17:22;;;;;;;7.90;2.30;;;;;;;-5.89;100.00;100705.78;106219;1251;60279;-56
2023/12/13 04:19:49;;;;;;;7.30;2.40;;;;;;;-5.92;100.00;100703.72;106479;1251;72817;-56
2023/12/13 04:22:16;;;;;;;15.70;3.40;;;;;;;-5.94;100.00;100708.59;105710;1251;67131;-56
2023/12/13 04:24:43;;;;;;;7.70;2.40;;;;;;;-5.95;100.00;100709.81;105896;1251;73136;-56
2023/12/13 04:27:11;;;;;;;10.10;3.10;;;;;;;-5.99;100.00;100712.34;106011;1253;60350;-60
2023/12/13 04:29:37;;;;;;;8.70;2.80;;;;;;;-6.01;100.00;100711.94;106068;1250;60881;-55
2023/12/13 04:32:06;;;;;;;14.70;3.00;;;;;;;-6.03;100.00;100706.94;105817;1250;73164;-56
2023/12/13 04:34:32;;;;;;;8.10;2.30;;;;;;;-6.05;100.00;100709.91;105995;1250;67096;-55
2023/12/13 04:36:59;;;;;;;8.20;2.20;;;;;;;-6.04;100.00;100711.25;105924;1251;72683;-56
2023/12/13 04:39:26;;;;;;;7.70;2.20;;;;;;;-6.08;100.00;100719.00;105850;1251;59518;-61
2023/12/13 04:41:53;;;;;;;8.90;3.30;;;;;;;-6.12;100.00;100719.84;105848;1254;59740;-55
2023/12/13 04:44:20;;;;;;;9.80;2.90;;;;;;;-6.15;100.00;100720.51;105831;1250;71380;-54
2023/12/13 04:46:47;;;;;;;11.80;2.60;;;;;;;-6.18;100.00;100729.21;105960;1254;67086;-55
2023/12/13 04:49:14;;;;;;;7.30;2.00;;;;;;;-6.20;100.00;100727.12;106019;1254;71098;-56
2023/12/13 04:51:41;;;;;;;10.30;3.50;;;;;;;-6.24;100.00;100726.94;105544;1251;60455;-55
2023/12/13 04:54:08;;;;;;;9.80;2.70;;;;;;;-6.27;100.00;100723.89;105865;1250;59484;-55
2023/12/13 04:56:35;;;;;;;9.90;3.10;;;;;;;-6.30;100.00;100728.23;105893;1254;73202;-55
2023/12/13 04:59:02;;;;;;;7.50;2.60;;;;;;;-6.28;100.00;100727.16;105718;1250;67079;-55
2023/12/13 05:01:29;;;;;;;9.80;2.80;;;;;;;-6.27;100.00;100730.14;106127;1251;71398;-56
2023/12/13 05:03:56;;;;;;;12.80;3.30;;;;;;;-6.27;100.00;100732.82;105748;1251;61970;-55
2023/12/13 05:06:23;;;;;;;11.90;2.90;;;;;;;-6.25;100.00;100730.23;105834;1251;60362;-54
2023/12/13 05:08:50;;;;;;;8.10;2.60;;;;;;;-6.26;100.00;100730.60;105884;1252;72992;-54
2023/12/13 05:11:18;;;;;;;9.10;2.90;;;;;;;-6.26;100.00;100733.63;106101;1254;67066;-55
2023/12/13 05:13:45;;;;;;;11.20;3.60;;;;;;;-6.27;100.00;100735.38;105859;1251;72631;-55
2023/12/13 05:16:12;;;;;;;11.30;3.00;;;;;;;-6.32;100.00;100738.95;105776;1251;62320;-54
2023/12/13 05:18:39;;;;;;;11.00;3.00;;;;;;;-6.36;100.00;100739.81;106144;1251;60252;-55
2023/12/13 05:21:06;;;;;;;9.90;2.70;;;;;;;-6.37;100.00;100740.34;106134;1251;71777;-55
2023/12/13 05:23:33;;;;;;;9.80;2.80;;;;;;;-6.42;100.00;100742.42;105655;1254;67145;-60
2023/12/13 05:26:00;;;;;;;7.60;2.70;;;;;;;-6.45;100.00;100743.56;105572;1251;71136;-55
2023/12/13 05:28:28;;;;;;;13.40;5.10;;;;;;;-6.45;100.00;100743.54;105882;1257;62029;-55
2023/12/13 05:30:55;;;;;;;10.90;5.70;;;;;;;-6.47;100.00;100741.11;105970;1250;60704;-54
2023/12/13 05:33:22;;;;;;;10.90;3.40;;;;;;;-6.47;100.00;100739.73;105945;1251;71754;-55
2023/12/13 05:35:49;;;;;;;11.80;3.50;;;;;;;-6.46;100.00;100744.45;106212;1251;66983;-61
2023/12/13 05:38:16;;;;;;;13.30;2.70;;;;;;;-6.48;100.00;100751.63;105852;1250;72546;-54
2023/12/13 05:40:43;;;;;;;9.90;4.40;;;;;;;-6.47;100.00;100753.80;106153;1254;61977;-56
2023/12/13 05:43:10;;;;;;;14.10;2.70;;;;;;;-6.48;100.00;100749.61;106118;1254;59528;-54
2023/12/13 05:45:38;;;;;;;11.10;2.50;;;;;;;-6.47;100.00;100751.42;105927;1250;73061;-56
2023/12/13 05:48:05;;;;;;;10.20;4.00;;;;;;;-6.49;100.00;100756.06;106061;1251;67081;-55
2023/12/13 05:50:32;;;;;;;11.20;2.40;;;;;;;-6.51;100.00;100752.25;105748;1251;72726;-56
2023/12/13 05:52:59;;;;;;;9.70;3.80;;;;;;;-6.50;100.00;100755.59;105825;1253;60448;-54
2023/12/13 05:55:27;;;;;;;10.70;2.80;;;;;;;-6.49;100.00;100753.37;105825;1251;59563;-54
2023/12/13 05:57:54;;;;;;;14.80;3.80;;;;;;;-6.49;100.00;100754.23;105900;1254;72404;-55
2023/12/13 06:00:21;;;;;;;7.80;2.60;;;;;;;-6.49;100.00;100753.02;106085;1254;67082;-55
2023/12/13 06:02:49;;;;;;;9.30;2.70;;;;;;;-6.51;100.00;100752.27;105637;1250;72713;-55
2023/12/13 06:05:24;;;;;;;13.00;3.60;;;;;;;-6.53;100.00;100754.86;105946;1254;61806;-62
2023/12/13 06:07:51;;;;;;;14.20;3.60;;;;;;;-6.54;100.00;100755.26;105584;1254;60211;-56
2023/12/13 06:10:18;;;;;;;12.30;3.00;;;;;;;-6.53;100.00;100759.95;105837;1250;71739;-56
2023/12/13 06:12:45;;;;;;;12.90;4.00;;;;;;;-6.50;100.00;100765.41;105899;1251;67066;-56
2023/12/13 06:15:12;;;;;;;11.70;3.40;;;;;;;-6.54;100.00;100768.25;106045;1254;72647;-60
2023/12/13 06:17:39;;;;;;;13.10;3.30;;;;;;;-6.58;100.00;100762.52;105727;1251;62367;-57
2023/12/13 06:20:07;;;;;;;16.80;4.50;;;;;;;-6.57;100.00;100762.81;105824;1254;59610;-56
2023/12/13 06:22:34;;;;;;;16.10;4.30;;;;;;;-6.58;100.00;100761.34;105925;1254;72043;-54
2023/12/13 06:25:01;;;;;;;9.40;3.50;;;;;;;-6.58;100.00;100757.12;105729;1254;67331;-60
2023/12/13 06:27:28;;;;;;;13.00;3.30;;;;;;;-6.60;100.00;100763.27;105837;1251;72113;-54
2023/12/13 06:29:55;;;;;;;11.80;2.90;;;;;;;-6.59;100.00;100766.10;105896;1254;59601;-55
2023/12/13 06:32:22;;;;;;;9.00;3.40;;;;;;;-6.62;100.00;100766.87;106044;1251;59640;-54
2023/12/13 06:34:50;;;;;;;13.20;3.80;;;;;;;-6.64;100.00;100763.08;105933;1251;71712;-54
2023/12/13 06:37:17;;;;;;;10.00;4.20;;;;;;;-6.64;100.00;100753.60;105898;1250;67675;-58
2023/12/13 06:39:43;;;;;;;8.80;3.40;;;;;;;-6.65;100.00;100759.91;105880;1251;72933;-54
2023/12/13 06:42:11;;;;;;;19.00;4.20;;;;;;;-6.63;100.00;100754.23;106078;1250;59572;-56
2023/12/13 06:44:38;;;;;;;16.20;5.90;;;;;;;-6.60;100.00;100756.15;105812;1251;59631;-56
2023/12/13 06:47:05;;;;;;;11.40;3.90;;;;;;;-6.58;100.00;100760.66;106251;1251;73066;-55
2023/12/13 06:49:34;;;;;;;13.00;4.50;;;;;;;-6.54;100.00;100759.33;106003;1251;67333;-55
2023/12/13 06:52:02;;;;;;;13.20;4.20;;;;;;;-6.52;100.00;100758.54;105767;1251;71419;-55
2023/12/13 06:54:29;;;;;;;12.00;4.60;;;;;;;-6.51;100.00;100761.24;105856;1254;59701;-55
2023/12/13 06:56:56;;;;;;;18.00;4.90;;;;;;;-6.50;100.00;100766.39;106024;1251;60029;-55
2023/12/13 06:59:23;;;;;;;9.80;4.40;;;;;;;-6.48;100.00;100775.09;105783;1251;71960;-54
2023/12/13 07:01:50;;;;;;;11.70;3.90;;;;;;;-6.46;100.00;100776.91;105772;1251;67106;-55
2023/12/13 07:04:17;;;;;;;10.20;4.30;;;;;;;-6.43;100.00;100774.59;105708;1251;72542;-57
2023/12/13 07:06:45;;;;;;;16.80;4.60;;;;;;;-6.43;100.00;100776.93;105900;1251;60248;-62
2023/12/13 07:09:18;;;;;;;13.70;5.20;;;;;;;-6.42;100.00;100781.48;105965;1256;59615;-56
2023/12/13 07:11:47;;;;;;;13.40;5.80;;;;;;;-6.40;100.00;100779.54;105947;1254;73094;-55
2023/12/13 07:14:14;;;;;;;20.10;5.00;;;;;;;-6.42;100.00;100777.27;106133;1250;67021;-55
2023/12/13 07:16:43;;;;;;;13.70;5.40;;;;;;;-6.42;100.00;100777.94;105943;1251;73390;-55
2023/12/13 07:19:10;;;;;;;13.80;5.60;;;;;;;-6.40;100.00;100780.87;105854;1251;62087;-56
2023/12/13 07:21:37;;;;;;;13.70;4.10;;;;;;;-6.40;100.00;100782.89;105748;1251;59386;-56
2023/12/13 07:24:04;;;;;;;13.00;5.20;;;;;;;-6.40;100.00;100781.57;106047;1251;72948;-56
2023/12/13 07:26:31;;;;;;;15.00;4.50;;;;;;;-6.40;100.00;100776.15;106041;1254;67145;-57
2023/12/13 07:28:58;;;;;;;24.90;7.20;;;;;;;-6.38;100.00;100781.14;106068;1251;73521;-54
2023/12/13 07:31:25;;;;;;;20.00;6.20;;;;;;;-6.36;100.00;100784.46;105964;1256;60428;-56
2023/12/13 07:33:53;;;;;;;11.30;3.60;;;;;;;-6.33;100.00;100783.98;105858;1251;60520;-57
2023/12/13 07:36:20;;;;;;;15.90;3.90;;;;;;;-6.30;100.00;100782.52;106002;1254;73863;-54
2023/12/13 07:38:47;;;;;;;14.00;4.50;;;;;;;-6.30;100.00;100781.47;106006;1250;65717;-55
2023/12/13 07:41:14;;;;;;;13.40;4.10;;;;;;;-6.29;100.00;100775.72;105693;1251;71748;-56
2023/12/13 07:43:41;;;;;;;14.20;4.70;;;;;;;-6.24;100.00;100780.09;105842;1254;62583;-56
2023/12/13 07:46:08;;;;;;;13.40;6.60;;;;;;;-6.22;100.00;100778.61;106188;1251;60530;-56
2023/12/13 07:48:36;;;;;;;22.70;6.90;;;;;;;-6.21;100.00;100777.91;106040;1254;72669;-57
2023/12/13 07:51:03;;;;;;;12.90;3.70;;;;;;;-6.22;100.00;100778.11;105708;1251;66992;-58
2023/12/13 07:53:30;;;;;;;13.20;4.10;;;;;;;-6.25;100.00;100779.77;105960;1252;72810;-56
2023/12/13 07:55:57;;;;;;;13.70;4.70;;;;;;;-6.25;100.00;100780.43;105793;1251;61977;-55
2023/12/13 07:58:24;;;;;;;23.70;6.60;;;;;;;-6.22;100.00;100784.02;105849;1251;60440;-55
2023/12/13 08:00:51;;;;;;;20.80;6.50;;;;;;;-6.18;100.00;100784.52;105994;1251;72516;-55
2023/12/13 08:03:20;;;;;;;19.70;5.00;;;;;;;-6.14;100.00;100788.11;105901;1254;67296;-56
2023/12/13 08:05:47;;;;;;;12.40;4.20;;;;;;;-6.13;100.00;100792.29;105759;1250;72738;-55
2023/12/13 08:08:15;;;;;;;33.50;11.60;;;;;;;-6.14;100.00;100793.66;106002;1251;61849;-55
2023/12/13 08:10:46;;;;;;;24.50;8.70;;;;;;;-6.17;100.00;100792.95;105996;1250;60551;-55
2023/12/13 08:13:14;;;;;;;17.10;6.60;;;;;;;-6.20;100.00;100791.40;106009;1257;72822;-55
2023/12/13 08:15:41;;;;;;;13.80;4.90;;;;;;;-6.22;100.00;100794.88;105873;1254;65901;-55
2023/12/13 08:18:09;;;;;;;22.50;6.70;;;;;;;-6.21;100.00;100789.23;106067;1254;72664;-55
2023/12/13 08:20:36;;;;;;;27.40;7.50;;;;;;;-6.19;100.00;100785.10;105949;1254;61428;-55
2023/12/13 08:23:04;;;;;;;16.90;6.30;;;;;;;-6.18;100.00;100783.70;106338;1250;60412;-61
2023/12/13 08:25:31;;;;;;;16.50;5.90;;;;;;;-6.15;100.00;100781.39;105621;1254;73880;-55
2023/12/13 08:27:58;;;;;;;22.20;6.70;;;;;;;-6.14;100.00;100778.98;105926;1251;66052;-56
2023/12/13 08:30:25;;;;;;;12.40;4.80;;;;;;;-6.13;100.00;100779.45;105893;1251;72693;-55
2023/12/13 08:32:53;;;;;;;19.10;5.60;;;;;;;-6.13;100.00;100779.58;105855;1251;60827;-57
2023/12/13 08:35:20;;;;;;;18.80;6.50;;;;;;;-6.07;100.00;100779.89;105958;1251;60411;-60
2023/12/13 08:37:47;;;;;;;23.90;6.70;;;;;;;-6.05;100.00;100775.89;105764;1251;72469;-56
2023/12/13 08:40:14;;;;;;;14.90;5.10;;;;;;;-6.01;100.00;100775.89;106049;1250;67240;-55
2023/12/13 08:42:41;;;;;;;14.10;4.90;;;;;;;-5.98;100.00;100780.87;105830;1256;71423;-55
2023/12/13 08:45:12;;;;;;;16.90;6.50;;;;;;;-5.97;100.00;100776.09;105780;1254;61973;-56
2023/12/13 08:47:40;;;;;;;17.00;8.00;;;;;;;-5.95;100.00;100775.14;105940;1255;60345;-57
2023/12/13 08:50:07;;;;;;;20.90;7.10;;;;;;;-5.93;100.00;100776.41;105855;1251;73741;-54
2023/12/13 08:52:34;;;;;;;16.50;6.30;;;;;;;-5.93;100.00;100769.31;106236;1251;67127;-55
2023/12/13 08:55:02;;;;;;;18.10;7.70;;;;;;;-5.93;100.00;100765.92;105814;1251;71444;-57
2023/12/13 08:57:29;;;;;;;18.30;6.70;;;;;;;-5.87;100.00;100765.63;106053;1254;60750;-61
2023/12/13 08:59:56;;;;;;;23.10;9.30;;;;;;;-5.85;100.00;100767.55;105890;1251;60446;-55
2023/12/13 09:02:35;;;;;;;29.70;14.40;;;;;;;-5.88;100.00;100759.38;106078;1254;73690;-55
2023/12/13 09:05:04;;;;;;;24.40;10.00;;;;;;;-5.84;100.00;100755.34;105805;1254;65772;-55
2023/12/13 09:07:31;;;;;;;26.20;10.70;;;;;;;-5.83;100.00;100761.23;106041;1251;71032;-56
2023/12/13 09:09:59;;;;;;;27.10;11.50;;;;;;;-5.81;100.00;100764.70;106263;1250;60479;-55
2023/12/13 09:12:26;;;;;;;31.00;11.70;;;;;;;-5.77;100.00;100765.38;106065;1255;60338;-55
2023/12/13 09:14:53;;;;;;;18.10;5.80;;;;;;;-5.76;100.00;100766.64;105860;1254;73796;-56
2023/12/13 09:17:20;;;;;;;21.10;5.40;;;;;;;-5.76;100.00;100764.98;105892;1251;65925;-56
2023/12/13 09:19:47;;;;;;;13.10;4.00;;;;;;;-5.79;100.00;100759.34;105884;1251;71615;-57
2023/12/13 09:22:14;;;;;;;12.80;5.50;;;;;;;-5.81;100.00;100750.29;106145;1251;60377;-56
2023/12/13 09:24:41;;;;;;;21.30;5.80;;;;;;;-5.82;100.00;100748.84;105903;1251;60477;-55
2023/12/13 09:27:08;;;;;;;17.30;4.80;;;;;;;-5.82;100.00;100744.60;106006;1255;73897;-55
2023/12/13 09:29:34;;;;;;;22.80;7.10;;;;;;;-5.79;100.00;100741.77;106230;1251;67102;-62
2023/12/13 09:32:01;;;;;;;23.20;6.60;;;;;;;-5.81;100.00;100733.20;106276;1257;72804;-56
2023/12/13 09:34:29;;;;;;;24.30;6.80;;;;;;;-5.81;100.00;100730.82;105715;1256;60444;-56
2023/12/13 09:36:56;;;;;;;13.00;5.60;;;;;;;-5.80;100.00;100728.23;105798;1255;60622;-55
2023/12/13 09:39:23;;;;;;;14.30;6.10;;;;;;;-5.79;100.00;100735.66;105916;1254;72127;-55
2023/12/13 09:42:03;;;;;;;18.10;6.00;;;;;;;-5.78;100.00;100731.54;105872;1256;67697;-55
2023/12/13 09:44:33;;;;;;;14.40;6.30;;;;;;;-5.76;100.00;100734.98;106177;1251;71122;-57
2023/12/13 09:47:01;;;;;;;15.90;6.40;;;;;;;-5.73;100.00;100740.11;106182;1251;60465;-56
2023/12/13 09:49:29;;;;;;;21.60;5.40;;;;;;;-5.70;100.00;100743.21;106006;1257;60278;-62
2023/12/13 09:52:07;;;;;;;18.50;5.20;;;;;;;-5.70;100.00;100744.39;105613;1251;73907;-55
2023/12/13 09:54:41;;;;;;;12.80;4.80;;;;;;;-5.70;100.00;100738.64;105802;1251;67324;-56
2023/12/13 09:57:07;;;;;;;14.60;5.70;;;;;;;-5.64;100.00;100735.17;106000;1251;72671;-62
2023/12/13 09:59:36;;;;;;;18.40;5.20;;;;;;;-5.58;100.00;100739.51;105742;1252;60408;-55
2023/12/13 10:02:03;;;;;;;23.80;5.30;;;;;;;-5.58;100.00;100746.77;105836;1251;60412;-55
2023/12/13 10:04:30;;;;;;;18.70;5.10;;;;;;;-5.60;100.00;100751.25;105936;1251;72692;-56
2023/12/13 10:06:57;;;;;;;18.90;5.30;;;;;;;-5.65;100.00;100742.66;106238;1251;67026;-61
2023/12/13 10:09:27;;;;;;;18.80;5.30;;;;;;;-5.68;100.00;100739.40;106020;1257;74317;-55
2023/12/13 10:11:55;;;;;;;20.80;3.90;;;;;;;-5.67;100.00;100740.89;105968;1251;62238;-55
2023/12/13 10:14:22;;;;;;;21.00;3.80;;;;;;;-5.71;100.00;100733.29;105773;1257;60751;-55
2023/12/13 10:16:52;;;;;;;17.60;4.60;;;;;;;-5.74;100.00;100735.27;105902;1256;75482;-56
2023/12/13 10:19:35;;;;;;;20.60;4.30;;;;;;;-5.75;100.00;100727.54;105664;1251;66301;-55
2023/12/13 10:22:05;;;;;;;19.30;9.00;;;;;;;-5.72;100.00;100724.19;105853;1251;74294;-55
2023/12/13 10:24:32;;;;;;;23.40;8.30;;;;;;;-5.69;100.00;100718.27;105835;1255;60492;-56
2023/12/13 10:26:59;;;;;;;18.70;5.90;;;;;;;-5.64;100.00;100716.56;106049;1251;60438;-62
2023/12/13 10:29:27;;;;;;;16.00;7.00;;;;;;;-5.62;100.00;100724.06;105655;1257;73837;-56
2023/12/13 10:31:59;;;;;;;19.90;6.50;;;;;;;-5.62;100.00;100726.26;106238;1251;67177;-56
2023/12/13 10:34:27;;;;;;;12.80;5.30;;;;;;;-5.60;100.00;100721.13;105835;1251;71538;-56
2023/12/13 10:36:54;;;;;;;24.90;6.10;;;;;;;-5.61;100.00;100724.35;105879;1251;60842;-55
2023/12/13 10:39:23;;;;;;;17.30;6.10;;;;;;;-5.59;100.00;100728.70;105797;1251;60420;-56
2023/12/13 10:41:54;;;;;;;22.20;6.60;;;;;;;-5.58;100.00;100725.95;106294;1256;73948;-58
2023/12/13 10:44:22;;;;;;;17.70;6.10;;;;;;;-5.57;100.00;100730.11;106142;1250;67007;-56
2023/12/13 10:46:56;;;;;;;23.30;6.90;;;;;;;-5.53;100.00;100735.70;105877;1256;73157;-55
2023/12/13 10:49:23;;;;;;;22.70;4.90;;;;;;;-5.51;100.00;100733.05;105751;1256;60780;-57
2023/12/13 10:51:51;;;;;;;17.30;5.20;;;;;;;-5.48;100.00;100741.05;105901;1251;60338;-56
2023/12/13 10:54:19;;;;;;;17.70;5.90;;;;;;;-5.50;100.00;100735.91;106083;1255;75331;-56
2023/12/13 10:56:45;;;;;;;21.70;7.40;;;;;;;-5.52;100.00;100734.47;105623;1251;66142;-57
2023/12/13 10:59:12;;;;;;;23.30;6.90;;;;;;;-5.53;100.00;100736.54;105811;1251;72617;-55
2023/12/13 11:01:41;;;;;;;21.90;6.20;;;;;;;-5.53;100.00;100730.44;105788;1252;61176;-57
2023/12/13 11:04:12;;;;;;;22.70;5.80;;;;;;;-5.50;100.00;100733.71;105745;1251;60331;-56
2023/12/13 11:06:42;;;;;;;26.00;5.70;;;;;;;-5.54;100.00;100737.28;105888;1255;73921;-55
2023/12/13 11:09:13;;;;;;;14.40;5.20;;;;;;;-5.55;100.00;100749.14;105870;1255;67566;-54
2023/12/13 11:11:43;;;;;;;24.40;5.90;;;;;;;-5.59;100.00;100752.23;105915;1257;72673;-57
2023/12/13 11:14:11;;;;;;;13.00;4.80;;;;;;;-5.65;100.00;100761.77;105914;1256;60771;-58
2023/12/13 11:16:39;;;;;;;21.60;5.80;;;;;;;-5.67;100.00;100766.09;105780;1251;62142;-58
2023/12/13 11:19:10;;;;;;;21.60;5.30;;;;;;;-5.67;100.00;100768.63;106027;1250;72613;-56
2023/12/13 11:21:38;;;;;;;19.40;5.00;;;;;;;-5.61;100.00;100768.39;105808;1251;65401;-57
2023/12/13 11:24:08;;;;;;;18.80;5.30;;;;;;;-5.55;100.00;100771.67;105825;1251;74343;-56